Time;durP1;ratioP1;P1;durP2;ratioP2;P2;SDS_P1;SDS_P2;PMS_P1;PMS_P2;Temp;Humidity;BMP_temperature;BMP_pressure;BME280_temperature;BME280_humidity;BME280_pressure;Samples;Min_cycle;Max_cycle;Signal;HPM_P1;HPM_P2
2023/01/11 00:00:18;;;;;;;7.85;2.20;;;4.90;99.90;;;;;;4742902;28;10001190;-75
2023/01/11 00:02:44;;;;;;;9.02;2.72;;;4.90;99.90;;;;;;4717154;28;10000218;-75
2023/01/11 00:05:10;;;;;;;12.57;2.92;;;4.90;99.90;;;;;;5070902;28;20032;-75
2023/01/11 00:07:36;;;;;;;10.20;2.85;;;4.90;99.90;;;;;;5059125;28;20369;-75
2023/01/11 00:10:03;;;;;;;8.73;3.00;;;4.90;99.90;;;;;;5068396;28;20032;-75
2023/01/11 00:12:29;;;;;;;13.43;3.22;;;4.90;99.90;;;;;;5057410;28;20030;-75
2023/01/11 00:14:55;;;;;;;13.15;3.40;;;4.90;99.90;;;;;;5084867;28;20111;-75
2023/01/11 00:17:21;;;;;;;11.68;3.40;;;4.90;99.90;;;;;;5072524;28;20115;-75
2023/01/11 00:19:46;;;;;;;14.55;3.20;;;4.80;99.90;;;;;;5057437;28;20032;-74
2023/01/11 00:22:12;;;;;;;8.55;3.22;;;4.80;99.90;;;;;;5068409;28;20027;-74
2023/01/11 00:24:38;;;;;;;10.48;3.50;;;4.80;99.90;;;;;;5060964;28;20024;-74
2023/01/11 00:27:03;;;;;;;14.98;3.30;;;4.80;99.90;;;;;;5072883;28;20036;-74
2023/01/11 00:29:29;;;;;;;13.00;3.38;;;4.80;99.90;;;;;;5070509;28;20472;-74
2023/01/11 00:31:54;;;;;;;12.45;3.28;;;4.80;99.90;;;;;;5070927;28;20111;-74
2023/01/11 00:34:20;;;;;;;10.73;3.08;;;4.80;99.90;;;;;;5071502;28;20399;-74
2023/01/11 00:36:45;;;;;;;10.00;3.30;;;4.80;99.90;;;;;;5070070;28;20036;-74
2023/01/11 00:39:11;;;;;;;12.40;3.22;;;4.80;99.90;;;;;;5079493;28;20028;-74
2023/01/11 00:49:52;;;;;;;11.98;3.47;;;4.80;99.90;;;;;;5067494;28;20059;-75
2023/01/11 00:52:18;;;;;;;9.70;3.05;;;4.80;99.90;;;;;;5065579;28;20063;-75
2023/01/11 00:54:43;;;;;;;10.63;3.80;;;4.80;99.90;;;;;;5065628;28;20020;-75
2023/01/11 00:57:09;;;;;;;16.33;3.88;;;4.80;99.90;;;;;;5083629;28;20044;-75
2023/01/11 00:59:36;;;;;;;10.25;3.83;;;4.80;99.90;;;;;;5077037;28;20116;-75
2023/01/11 01:02:02;;;;;;;10.02;3.25;;;4.80;99.90;;;;;;5075560;28;20488;-75
2023/01/11 01:04:27;;;;;;;9.93;3.30;;;4.80;99.90;;;;;;5073793;28;20538;-75
2023/01/11 01:06:53;;;;;;;10.10;3.90;;;4.90;99.90;;;;;;5055327;28;20025;-75
2023/01/11 01:09:18;;;;;;;17.90;3.88;;;4.80;99.90;;;;;;5054377;28;20020;-75
2023/01/11 01:11:44;;;;;;;12.23;3.80;;;4.90;99.90;;;;;;5070836;28;20040;-75
2023/01/11 01:14:29;;;;;;;7.57;3.85;;;4.90;99.90;;;;;;5077508;28;20020;-76
2023/01/11 01:17:08;;;;;;;13.60;4.13;;;4.90;99.90;;;;;;5069285;28;20031;-76
2023/01/11 01:19:37;;;;;;;8.88;3.53;;;4.90;99.90;;;;;;5071585;28;20040;-76
2023/01/11 01:22:04;;;;;;;9.18;3.53;;;5.00;99.90;;;;;;5059695;28;20085;-76
2023/01/11 01:24:30;;;;;;;10.70;3.25;;;5.00;99.90;;;;;;5069095;28;20112;-76
2023/01/11 01:26:57;;;;;;;11.20;3.13;;;5.00;99.90;;;;;;5075857;28;20028;-75
2023/01/11 01:29:23;;;;;;;9.10;3.30;;;5.00;99.90;;;;;;5083204;28;20063;-75
2023/01/11 01:31:48;;;;;;;10.90;2.95;;;5.00;99.90;;;;;;5054747;28;20098;-75
2023/01/11 01:34:14;;;;;;;9.35;3.28;;;5.10;99.90;;;;;;5062588;28;20547;-76
2023/01/11 01:36:40;;;;;;;12.30;3.67;;;5.10;99.90;;;;;;5074349;28;20029;-75
2023/01/11 01:39:06;;;;;;;17.08;3.47;;;5.20;99.90;;;;;;5080180;28;20070;-75
2023/01/11 01:41:33;;;;;;;10.68;3.55;;;5.10;99.90;;;;;;5065375;28;20032;-76
2023/01/11 01:44:01;;;;;;;9.75;3.55;;;5.10;99.90;;;;;;5061218;28;20063;-75
2023/01/11 01:46:32;;;;;;;11.23;3.20;;;5.20;99.90;;;;;;5055724;28;20065;-75
2023/01/11 01:49:00;;;;;;;13.25;3.30;;;5.20;99.90;;;;;;5070143;28;20119;-75
2023/01/11 01:51:37;;;;;;;10.77;3.30;;;5.30;99.90;;;;;;5056403;28;20125;-76
2023/01/11 01:54:07;;;;;;;10.23;3.35;;;5.30;99.90;;;;;;5069819;28;20042;-76
2023/01/11 01:56:38;;;;;;;10.93;3.60;;;5.30;99.90;;;;;;5070940;28;20032;-75
2023/01/11 01:59:11;;;;;;;6.47;2.78;;;5.30;99.90;;;;;;5054972;28;20536;-75
2023/01/11 02:01:47;;;;;;;8.25;3.13;;;5.20;99.90;;;;;;5066685;28;20036;-76
2023/01/11 02:04:38;;;;;;;14.75;3.90;;;5.30;99.90;;;;;;5070297;28;20021;-76
2023/01/11 02:07:12;;;;;;;11.65;3.92;;;5.30;99.90;;;;;;5048452;28;20531;-76
2023/01/11 02:09:56;;;;;;;9.75;3.40;;;5.30;99.90;;;;;;5062150;28;20024;-76
2023/01/11 02:12:25;;;;;;;11.82;3.80;;;5.30;99.90;;;;;;5058276;28;20036;-75
2023/01/11 02:14:53;;;;;;;10.10;3.88;;;5.30;99.90;;;;;;5070536;28;20447;-76
2023/01/11 02:17:20;;;;;;;8.20;3.60;;;5.30;99.90;;;;;;5069516;28;20567;-76
2023/01/11 02:20:03;;;;;;;12.60;3.67;;;5.30;99.90;;;;;;5074176;28;20036;-76
2023/01/11 02:22:48;;;;;;;9.18;3.25;;;5.30;99.90;;;;;;5062738;28;20077;-76
2023/01/11 02:25:38;;;;;;;9.95;3.42;;;5.30;99.90;;;;;;5066156;28;20446;-76
2023/01/11 02:28:16;;;;;;;6.85;3.20;;;5.30;99.90;;;;;;5061321;28;20097;-75
2023/01/11 02:30:57;;;;;;;10.38;3.38;;;5.30;99.90;;;;;;5059030;28;20562;-75
2023/01/11 02:33:54;;;;;;;8.32;3.50;;;5.30;99.90;;;;;;5059143;28;20040;-75
2023/01/11 02:36:47;;;;;;;9.75;3.40;;;5.40;99.90;;;;;;5060571;28;20040;-75
2023/01/11 02:39:17;;;;;;;10.63;3.83;;;5.40;99.90;;;;;;5060913;28;20063;-75
2023/01/11 02:45:02;;;;;;;6.82;3.40;;;5.40;99.90;;;;;;5050034;28;20289;-75
2023/01/11 02:47:51;;;;;;;11.98;3.70;;;5.40;99.90;;;;;;5033390;28;20396;-75
2023/01/11 02:50:33;;;;;;;9.90;3.70;;;5.40;99.90;;;;;;5057509;28;20055;-75
2023/01/11 02:53:17;;;;;;;10.60;3.35;;;5.40;99.90;;;;;;5058081;28;20442;-75
2023/01/11 02:55:50;;;;;;;8.00;3.13;;;5.40;99.90;;;;;;5059052;28;20085;-75
2023/01/11 02:58:18;;;;;;;9.85;3.42;;;5.50;99.90;;;;;;5063202;28;20039;-75
2023/01/11 03:00:46;;;;;;;7.40;3.53;;;5.50;99.90;;;;;;5058418;28;20055;-75
2023/01/11 03:03:16;;;;;;;6.75;3.50;;;5.50;99.90;;;;;;5057442;28;20094;-75
2023/01/11 03:05:55;;;;;;;9.98;3.88;;;5.50;99.90;;;;;;5056442;28;20546;-75
2023/01/11 03:08:27;;;;;;;11.52;3.95;;;5.50;99.90;;;;;;5063778;28;20024;-75
2023/01/11 03:11:01;;;;;;;8.60;3.65;;;5.50;99.90;;;;;;5064560;28;20027;-75
2023/01/11 03:13:52;;;;;;;9.43;4.25;;;5.50;99.90;;;;;;5054557;28;20036;-75
2023/01/11 03:16:42;;;;;;;11.50;3.92;;;5.50;99.90;;;;;;5060279;28;20025;-75
2023/01/11 03:19:24;;;;;;;12.70;4.15;;;5.50;99.90;;;;;;5072495;28;20111;-75
2023/01/11 03:22:08;;;;;;;14.90;4.97;;;5.50;99.90;;;;;;5074541;28;20659;-75
2023/01/11 03:24:51;;;;;;;7.95;3.85;;;5.50;99.90;;;;;;5060918;28;20096;-75
2023/01/11 03:27:44;;;;;;;9.60;4.35;;;5.50;99.90;;;;;;5069168;28;20024;-75
2023/01/11 03:30:29;;;;;;;9.85;4.30;;;5.50;99.90;;;;;;5081915;28;20016;-76
2023/01/11 03:33:07;;;;;;;9.15;4.57;;;5.50;99.90;;;;;;5064852;28;20029;-75
2023/01/11 03:35:52;;;;;;;10.23;4.03;;;5.60;99.90;;;;;;5064850;28;20100;-75
2023/01/11 03:38:22;;;;;;;11.98;4.50;;;5.60;99.90;;;;;;5065479;28;20497;-75
2023/01/11 03:41:11;;;;;;;11.77;3.95;;;5.60;99.90;;;;;;5055590;28;20086;-75
2023/01/11 03:43:40;;;;;;;11.43;4.57;;;5.60;99.90;;;;;;5055425;28;20036;-75
2023/01/11 03:46:08;;;;;;;13.15;4.40;;;5.60;99.90;;;;;;5068007;28;20607;-75
2023/01/11 03:48:59;;;;;;;9.90;4.55;;;5.60;99.90;;;;;;5066063;28;20067;-75
2023/01/11 03:51:28;;;;;;;12.88;4.07;;;5.60;99.90;;;;;;5056664;28;20570;-75
2023/01/11 03:53:58;;;;;;;10.13;4.63;;;5.60;99.90;;;;;;5067586;28;20529;-74
2023/01/11 03:56:41;;;;;;;8.50;4.13;;;5.60;99.90;;;;;;5076437;28;20029;-75
2023/01/11 03:59:06;;;;;;;13.30;4.28;;;5.60;99.90;;;;;;5060555;28;20033;-75
2023/01/11 04:01:32;;;;;;;8.68;4.50;;;5.60;99.90;;;;;;5064349;28;20032;-74
2023/01/11 04:03:58;;;;;;;7.00;3.88;;;5.70;99.90;;;;;;5068885;28;20114;-75
2023/01/11 04:06:24;;;;;;;9.30;3.92;;;5.70;99.90;;;;;;5062320;28;20021;-75
2023/01/11 04:08:50;;;;;;;9.20;4.10;;;5.60;99.90;;;;;;5068980;28;20581;-75
2023/01/11 04:11:15;;;;;;;8.57;3.88;;;5.70;99.90;;;;;;5061659;28;20020;-75
2023/01/11 04:13:41;;;;;;;7.80;4.18;;;5.60;99.90;;;;;;5063349;28;20111;-75
2023/01/11 04:16:06;;;;;;;9.60;4.07;;;5.70;99.90;;;;;;5065400;28;20033;-75
2023/01/11 04:18:32;;;;;;;13.85;4.60;;;5.70;99.90;;;;;;5065858;28;20481;-75
2023/01/11 04:20:58;;;;;;;9.18;4.60;;;5.70;99.90;;;;;;5064980;28;20048;-75
2023/01/11 04:23:24;;;;;;;8.07;3.83;;;5.70;99.90;;;;;;5061805;28;20025;-75
2023/01/11 04:25:49;;;;;;;9.52;4.10;;;5.80;99.90;;;;;;5066856;28;20105;-75
2023/01/11 04:28:15;;;;;;;14.05;4.05;;;5.80;99.90;;;;;;5060158;28;20033;-75
2023/01/11 04:30:40;;;;;;;9.82;3.35;;;5.80;99.90;;;;;;5062449;28;20404;-75
2023/01/11 04:33:06;;;;;;;10.35;4.05;;;5.90;99.90;;;;;;5070442;28;20547;-74
2023/01/11 04:35:32;;;;;;;9.70;4.60;;;5.90;99.90;;;;;;5070192;28;20024;-75
2023/01/11 04:37:57;;;;;;;8.93;4.47;;;5.90;99.90;;;;;;5061371;28;20103;-75
2023/01/11 04:40:24;;;;;;;11.18;4.72;;;5.90;99.90;;;;;;5063571;28;20032;-75
2023/01/11 04:42:50;;;;;;;8.43;4.40;;;5.90;99.90;;;;;;5053294;28;20097;-75
2023/01/11 04:45:15;;;;;;;8.82;4.45;;;5.90;99.90;;;;;;5063738;28;20484;-75
2023/01/11 04:47:41;;;;;;;8.15;4.20;;;5.90;99.90;;;;;;5069337;28;20047;-75
2023/01/11 04:50:07;;;;;;;5.90;3.88;;;5.90;99.90;;;;;;5056604;28;20020;-75
2023/01/11 04:52:33;;;;;;;7.35;3.78;;;5.90;99.90;;;;;;5068870;28;20028;-75
2023/01/11 04:54:58;;;;;;;6.05;3.90;;;6.00;99.90;;;;;;5079669;28;20081;-76
2023/01/11 04:57:24;;;;;;;7.75;4.10;;;6.00;99.90;;;;;;5080128;28;20027;-75
2023/01/11 04:59:50;;;;;;;6.90;4.18;;;6.00;99.90;;;;;;5057789;28;20025;-75
2023/01/11 05:02:16;;;;;;;8.25;4.32;;;6.00;99.90;;;;;;5060019;28;20024;-75
2023/01/11 05:04:42;;;;;;;8.35;4.43;;;6.00;99.90;;;;;;5079852;28;20510;-75
2023/01/11 05:07:08;;;;;;;8.18;4.78;;;6.00;99.90;;;;;;5055442;28;20029;-75
2023/01/11 05:09:34;;;;;;;7.15;4.80;;;6.00;99.90;;;;;;5063607;28;20035;-74
2023/01/11 05:11:59;;;;;;;8.68;5.13;;;6.00;99.90;;;;;;5061454;28;20040;-75
2023/01/11 05:14:25;;;;;;;9.77;4.85;;;6.10;99.90;;;;;;5069772;28;20035;-74
2023/01/11 05:16:51;;;;;;;7.05;5.00;;;6.10;99.90;;;;;;5065090;28;20032;-75
2023/01/11 05:19:17;;;;;;;7.68;5.13;;;6.10;99.90;;;;;;5072810;28;20097;-75
2023/01/11 05:21:42;;;;;;;9.45;5.40;;;6.10;99.90;;;;;;5058020;28;20048;-75
2023/01/11 05:24:11;;;;;;;8.25;4.95;;;6.10;99.90;;;;;;5064595;28;20033;-75
2023/01/11 05:26:40;;;;;;;10.63;5.43;;;6.10;99.90;;;;;;5055861;28;20036;-75
2023/01/11 05:29:08;;;;;;;5.60;4.50;;;6.10;99.90;;;;;;5055751;28;20029;-75
2023/01/11 05:31:35;;;;;;;9.77;5.22;;;6.10;99.90;;;;;;5071304;28;20491;-75
2023/01/11 05:34:01;;;;;;;12.73;5.15;;;6.20;99.90;;;;;;5070303;28;20112;-75
2023/01/11 05:36:27;;;;;;;8.10;5.35;;;6.20;99.90;;;;;;5084495;28;20119;-75
2023/01/11 05:38:54;;;;;;;8.02;5.35;;;6.20;99.90;;;;;;5069335;28;20075;-75
2023/01/11 05:41:22;;;;;;;10.57;5.28;;;6.30;99.90;;;;;;5068241;28;20036;-75
2023/01/11 05:46:34;;;;;;;10.68;4.78;;;6.30;99.90;;;;;;5084320;28;20056;-75
2023/01/11 05:49:01;;;;;;;7.88;4.90;;;6.30;99.90;;;;;;5068121;28;20049;-75
2023/01/11 05:51:29;;;;;;;6.60;5.10;;;6.30;99.90;;;;;;5052865;28;20043;-75
2023/01/11 05:53:55;;;;;;;7.45;5.00;;;6.30;99.90;;;;;;5060967;28;20028;-74
2023/01/11 05:56:21;;;;;;;7.70;4.80;;;6.40;99.90;;;;;;5066937;28;20472;-75
2023/01/11 05:58:48;;;;;;;7.63;4.97;;;6.30;99.90;;;;;;5059202;28;20024;-75
2023/01/11 06:01:15;;;;;;;8.82;5.38;;;6.30;99.90;;;;;;5064260;28;20136;-75
2023/01/11 06:03:41;;;;;;;8.40;5.07;;;6.30;99.90;;;;;;5057001;28;20537;-75
2023/01/11 06:06:07;;;;;;;6.85;5.47;;;6.40;99.90;;;;;;5073026;28;20032;-76
2023/01/11 06:08:33;;;;;;;10.90;5.22;;;6.40;99.90;;;;;;5062920;28;20091;-75
2023/01/11 06:10:58;;;;;;;11.15;5.60;;;6.40;99.90;;;;;;5051397;28;20025;-75
2023/01/11 06:13:27;;;;;;;9.80;6.05;;;6.40;99.90;;;;;;5065883;28;20020;-75
2023/01/11 06:16:04;;;;;;;11.85;6.15;;;6.40;99.90;;;;;;5058001;28;20059;-75
2023/01/11 06:18:40;;;;;;;12.52;5.93;;;6.40;99.90;;;;;;5061511;28;20101;-75
2023/01/11 06:21:07;;;;;;;10.35;6.28;;;6.40;99.90;;;;;;5055099;28;20036;-75
2023/01/11 06:23:35;;;;;;;11.20;6.38;;;6.40;99.90;;;;;;5054288;28;20047;-74
2023/01/11 06:26:06;;;;;;;11.63;6.43;;;6.40;99.90;;;;;;5066537;28;20024;-74
2023/01/11 06:28:32;;;;;;;10.48;6.85;;;6.40;99.90;;;;;;5056495;28;20519;-74
2023/01/11 06:30:58;;;;;;;11.20;6.45;;;6.40;99.90;;;;;;5060525;28;20021;-75
2023/01/11 06:33:26;;;;;;;9.60;6.50;;;6.40;99.90;;;;;;5063830;28;20020;-75
2023/01/11 06:35:52;;;;;;;13.48;6.47;;;6.50;99.90;;;;;;5059405;28;20505;-74
2023/01/11 06:38:20;;;;;;;12.43;7.28;;;6.50;99.90;;;;;;5054181;28;20039;-74
2023/01/11 06:40:54;;;;;;;12.68;6.78;;;6.50;99.90;;;;;;5063562;28;20025;-75
2023/01/11 06:43:21;;;;;;;9.52;7.13;;;6.50;99.90;;;;;;5052706;28;20028;-74
2023/01/11 06:45:47;;;;;;;15.55;7.60;;;6.50;99.90;;;;;;5077490;28;20547;-74
2023/01/11 06:48:13;;;;;;;12.60;7.80;;;6.50;99.90;;;;;;5065905;28;20056;-74
2023/01/11 06:50:39;;;;;;;9.68;7.55;;;6.50;99.90;;;;;;5060910;28;20088;-74
2023/01/11 06:53:05;;;;;;;13.25;8.02;;;6.50;99.90;;;;;;5063128;28;20040;-75
2023/01/11 06:55:31;;;;;;;10.80;7.75;;;6.60;99.90;;;;;;5071620;28;20043;-76
2023/01/11 06:57:57;;;;;;;11.80;7.82;;;6.60;99.90;;;;;;5053788;28;20033;-76
2023/01/11 07:00:23;;;;;;;12.93;7.85;;;6.50;99.90;;;;;;5059967;28;20040;-76
2023/01/11 07:02:50;;;;;;;12.68;7.50;;;6.60;99.90;;;;;;5059789;28;20025;-77
2023/01/11 07:05:16;;;;;;;11.73;8.15;;;6.60;99.90;;;;;;5072839;28;20499;-76
2023/01/11 07:07:42;;;;;;;10.38;7.45;;;6.70;99.90;;;;;;5062013;28;20028;-76
2023/01/11 07:10:11;;;;;;;11.23;7.97;;;6.60;99.90;;;;;;5079597;28;20048;-76
2023/01/11 07:12:36;;;;;;;11.00;7.85;;;6.60;99.90;;;;;;5067902;28;20028;-75
2023/01/11 07:15:04;;;;;;;12.20;8.77;;;6.70;99.90;;;;;;5068668;28;20115;-76
2023/01/11 07:17:29;;;;;;;13.80;7.70;;;6.60;99.90;;;;;;5053534;28;20116;-76
2023/01/11 07:19:55;;;;;;;12.02;8.60;;;6.70;99.90;;;;;;5068475;28;20162;-75
2023/01/11 07:22:23;;;;;;;11.27;8.00;;;6.70;99.90;;;;;;5062668;28;20485;-75
2023/01/11 07:24:49;;;;;;;10.20;7.65;;;6.70;99.90;;;;;;5076384;28;20024;-75
2023/01/11 07:27:15;;;;;;;13.35;8.25;;;6.70;99.90;;;;;;5072282;28;20074;-76
2023/01/11 07:29:41;;;;;;;12.98;8.32;;;6.80;99.90;;;;;;5062781;28;21045;-76
2023/01/11 07:32:07;;;;;;;12.25;8.88;;;6.70;99.90;;;;;;5063524;28;20032;-75
2023/01/11 07:34:33;;;;;;;16.05;9.30;;;6.70;99.90;;;;;;5058221;28;20036;-76
2023/01/11 07:36:59;;;;;;;9.73;7.35;;;6.70;99.90;;;;;;5054103;28;20112;-75
2023/01/11 07:39:25;;;;;;;9.68;8.13;;;6.80;99.90;;;;;;5061791;28;20117;-75
2023/01/11 07:44:34;;;;;;;12.68;7.65;;;6.80;99.90;;;;;;5058324;28;20032;-75
2023/01/11 07:47:00;;;;;;;10.85;7.05;;;6.80;99.90;;;;;;5057607;28;20852;-74
2023/01/11 07:49:26;;;;;;;11.02;8.20;;;6.90;99.90;;;;;;5066585;28;20093;-75
2023/01/11 07:51:52;;;;;;;20.73;14.80;;;6.80;99.90;;;;;;5060314;28;20079;-74
2023/01/11 07:54:18;;;;;;;15.30;10.50;;;6.90;99.90;;;;;;5072701;28;20032;-75
2023/01/11 07:56:43;;;;;;;12.10;10.13;;;6.90;99.90;;;;;;5053150;28;20447;-74
2023/01/11 07:59:09;;;;;;;10.20;8.57;;;6.90;99.90;;;;;;5055872;28;20822;-75
2023/01/11 08:01:35;;;;;;;11.45;9.35;;;6.90;99.90;;;;;;5046485;28;20025;-77
2023/01/11 08:04:01;;;;;;;11.00;8.98;;;6.90;99.90;;;;;;5053510;28;20029;-76
2023/01/11 08:06:27;;;;;;;12.57;10.48;;;6.90;99.90;;;;;;5064418;28;20457;-75
2023/01/11 08:08:52;;;;;;;10.88;9.45;;;6.90;99.90;;;;;;5054315;28;20029;-75
2023/01/11 08:16:46;;;;;;;8.82;7.63;;;6.90;99.90;;;;;;5058294;28;20031;-76
2023/01/11 08:19:11;;;;;;;8.23;7.22;;;7.00;99.90;;;;;;5057642;28;20715;-76
2023/01/11 08:21:37;;;;;;;9.57;7.00;;;7.00;99.90;;;;;;5054443;28;20025;-75
2023/01/11 08:24:03;;;;;;;11.70;9.20;;;7.00;99.90;;;;;;5046636;28;20648;-76
2023/01/11 08:26:28;;;;;;;10.65;8.80;;;7.00;99.90;;;;;;5049071;28;20088;-76
2023/01/11 08:28:54;;;;;;;8.63;6.43;;;7.00;99.90;;;;;;5066848;28;20029;-75
2023/01/11 08:31:20;;;;;;;8.93;7.57;;;7.00;99.90;;;;;;5054545;28;20028;-75
2023/01/11 08:33:48;;;;;;;9.45;6.68;;;7.10;99.90;;;;;;5074804;28;20068;-75
2023/01/11 08:36:13;;;;;;;8.98;6.35;;;7.10;99.90;;;;;;5053999;28;20040;-76
2023/01/11 08:38:39;;;;;;;8.57;7.13;;;7.10;99.90;;;;;;5060392;28;20404;-75
2023/01/11 08:41:12;;;;;;;7.68;6.80;;;7.10;99.90;;;;;;5064935;28;20111;-76
2023/01/11 08:43:39;;;;;;;;;;;7.10;99.90;;;;;;5067961;28;20028;-76
2023/01/11 08:46:05;;;;;;;7.15;6.25;;;7.10;99.90;;;;;;5068001;28;19908;-76
2023/01/11 08:48:30;;;;;;;10.10;7.82;;;7.20;99.90;;;;;;5064589;28;20052;-76
2023/01/11 08:50:56;;;;;;;6.78;5.93;;;7.20;99.90;;;;;;5052308;28;20079;-75
2023/01/11 08:53:21;;;;;;;6.68;5.97;;;7.20;99.90;;;;;;5044496;28;20045;-75
2023/01/11 08:55:48;;;;;;;7.97;5.60;;;7.20;99.90;;;;;;5068121;28;20025;-76
2023/01/11 08:58:13;;;;;;;7.38;5.80;;;7.20;99.90;;;;;;5061726;28;20036;-75
2023/01/11 09:00:39;;;;;;;5.20;4.70;;;7.30;99.90;;;;;;5050369;28;20014;-75
2023/01/11 09:03:04;;;;;;;5.63;4.47;;;7.30;99.90;;;;;;5064563;28;20045;-75
2023/01/11 09:05:30;;;;;;;5.65;4.32;;;7.30;99.90;;;;;;5071951;28;20659;-75
2023/01/11 09:07:56;;;;;;;8.55;6.50;;;7.30;99.90;;;;;;5067811;28;20028;-76
2023/01/11 09:10:26;;;;;;;7.38;6.00;;;7.30;99.90;;;;;;5063707;28;20032;-75
2023/01/11 09:12:56;;;;;;;7.50;5.88;;;7.40;99.90;;;;;;5060937;28;20512;-75
2023/01/11 09:15:22;;;;;;;9.15;6.10;;;7.40;99.90;;;;;;5050375;28;20036;-76
2023/01/11 09:17:48;;;;;;;5.40;4.38;;;7.40;99.90;;;;;;5050271;28;20028;-75
2023/01/11 09:20:15;;;;;;;7.43;5.82;;;7.40;99.90;;;;;;5060505;28;20370;-75
2023/01/11 09:22:48;;;;;;;6.97;5.80;;;7.40;99.90;;;;;;5068239;28;20029;-75
2023/01/11 09:25:14;;;;;;;6.72;4.53;;;7.40;99.90;;;;;;5068624;28;20302;-75
2023/01/11 09:27:47;;;;;;;5.95;4.78;;;7.40;99.90;;;;;;5061129;28;20146;-75
2023/01/11 09:30:16;;;;;;;6.85;5.20;;;7.50;99.90;;;;;;5074625;28;20031;-75
2023/01/11 09:32:42;;;;;;;4.80;3.50;;;7.50;99.90;;;;;;5055817;28;20024;-75
2023/01/11 09:35:08;;;;;;;8.23;6.40;;;7.50;99.90;;;;;;5069752;28;20362;-75
2023/01/11 09:37:38;;;;;;;6.13;4.57;;;7.50;99.90;;;;;;5061042;28;20488;-75
2023/01/11 09:40:05;;;;;;;5.80;3.58;;;7.50;99.90;;;;;;5054557;28;20029;-75
2023/01/11 09:42:38;;;;;;;5.72;3.92;;;7.50;99.90;;;;;;5062437;28;20392;-76
2023/01/11 09:45:20;;;;;;;5.78;3.83;;;7.60;99.90;;;;;;5079897;28;20092;-75
2023/01/11 09:48:02;;;;;;;5.45;3.63;;;7.60;99.90;;;;;;5060827;28;20093;-75
2023/01/11 09:50:31;;;;;;;3.65;3.15;;;7.60;99.90;;;;;;5059319;28;20671;-75
2023/01/11 09:53:03;;;;;;;3.97;3.33;;;7.60;99.90;;;;;;5054770;28;20552;-76
2023/01/11 09:55:51;;;;;;;3.03;2.70;;;7.60;99.90;;;;;;5068468;28;20326;-76
2023/01/11 09:58:45;;;;;;;3.03;2.50;;;7.60;99.90;;;;;;5069209;28;20090;-76
2023/01/11 10:01:45;;;;;;;3.70;2.83;;;7.60;99.90;;;;;;5051048;28;20037;-75
2023/01/11 10:04:31;;;;;;;4.05;3.10;;;7.70;99.90;;;;;;5053159;28;20032;-76
2023/01/11 10:07:28;;;;;;;5.57;2.90;;;7.70;99.90;;;;;;5088923;28;20046;-75
2023/01/11 10:10:31;;;;;;;9.73;7.25;;;7.70;99.90;;;;;;5064317;28;20492;-75
2023/01/11 10:13:27;;;;;;;13.75;12.35;;;7.70;99.90;;;;;;5068895;28;20124;-75
2023/01/11 10:16:06;;;;;;;6.65;5.25;;;7.70;99.90;;;;;;5048242;28;20078;-75
2023/01/11 10:19:03;;;;;;;7.78;6.75;;;7.70;99.90;;;;;;5059012;28;20047;-75
2023/01/11 10:21:57;;;;;;;7.57;6.88;;;7.70;99.90;;;;;;5065579;28;20024;-75
2023/01/11 10:24:25;;;;;;;8.40;7.45;;;7.70;99.90;;;;;;5066493;28;20111;-76
2023/01/11 10:26:56;;;;;;;10.07;9.07;;;7.70;99.90;;;;;;5069731;28;20036;-75
2023/01/11 10:30:05;;;;;;;6.30;5.70;;;7.70;99.90;;;;;;5065055;28;20094;-75
2023/01/11 10:35:46;;;;;;;18.20;12.48;;;7.80;99.90;;;;;;5066951;28;20043;-75
2023/01/11 10:38:57;;;;;;;9.40;7.30;;;7.70;99.90;;;;;;5068347;28;20028;-75
2023/01/11 10:41:47;;;;;;;7.30;6.30;;;7.80;99.90;;;;;;5066439;28;20052;-75
2023/01/11 10:44:37;;;;;;;5.28;3.88;;;7.80;99.90;;;;;;5061259;28;20029;-75
2023/01/11 10:47:12;;;;;;;6.43;4.47;;;7.80;99.90;;;;;;5063131;28;20151;-75
2023/01/11 10:49:46;;;;;;;8.15;5.80;;;7.80;99.90;;;;;;5071960;28;20048;-75
2023/01/11 10:52:34;;;;;;;6.45;5.32;;;7.80;99.90;;;;;;5073616;28;20516;-75
2023/01/11 10:55:15;;;;;;;9.07;7.30;;;7.80;99.90;;;;;;5059812;28;20067;-75
2023/01/11 10:58:17;;;;;;;5.68;5.07;;;7.80;99.90;;;;;;5068317;28;20094;-75
2023/01/11 11:00:57;;;;;;;6.20;5.10;;;7.80;99.90;;;;;;5032875;28;20070;-75
2023/01/11 11:03:41;;;;;;;5.80;4.32;;;7.90;99.90;;;;;;5053400;28;20039;-75
2023/01/11 11:06:16;;;;;;;5.78;3.95;;;7.90;99.90;;;;;;5065000;28;20544;-75
2023/01/11 11:09:03;;;;;;;5.13;4.63;;;7.90;99.90;;;;;;5058657;28;20023;-75
2023/01/11 11:11:45;;;;;;;5.60;4.90;;;8.00;99.90;;;;;;5061223;28;20032;-75
2023/01/11 11:14:22;;;;;;;6.00;5.40;;;8.00;99.90;;;;;;5064559;28;20028;-75
2023/01/11 11:17:06;;;;;;;6.72;5.22;;;8.00;99.90;;;;;;5047844;28;20170;-75
2023/01/11 11:19:32;;;;;;;3.88;3.47;;;8.00;99.90;;;;;;5059356;28;20100;-75
2023/01/11 11:21:58;;;;;;;3.17;2.88;;;8.00;99.90;;;;;;5067376;28;20031;-75
2023/01/11 11:24:32;;;;;;;3.95;3.17;;;8.00;99.90;;;;;;5066464;28;20067;-75
2023/01/11 11:27:08;;;;;;;4.65;3.60;;;8.00;99.90;;;;;;5060986;28;20089;-75
2023/01/11 11:29:40;;;;;;;3.83;3.40;;;8.10;99.90;;;;;;5059328;28;20032;-75
2023/01/11 11:32:25;;;;;;;3.33;3.03;;;8.00;99.90;;;;;;5068585;28;20020;-74
2023/01/11 11:34:51;;;;;;;4.40;3.63;;;8.00;99.90;;;;;;5074722;28;20090;-75
2023/01/11 11:37:25;;;;;;;4.45;3.17;;;;;;;;;;5067163;28;20134;-75
2023/01/11 11:39:52;;;;;;;6.60;6.00;;;;;;;;;;5077138;28;20114;-75
2023/01/11 11:42:20;;;;;;;4.90;4.00;;;;;;;;;;5082115;28;20480;-76
2023/01/11 11:45:03;;;;;;;5.47;4.80;;;;;;;;;;5058660;28;20016;-75
2023/01/11 11:47:29;;;;;;;5.78;5.10;;;;;;;;;;5058397;28;20396;-75
2023/01/11 11:50:15;;;;;;;5.85;4.60;;;;;;;;;;5066979;28;20024;-75
2023/01/11 11:52:42;;;;;;;4.70;3.35;;;;;;;;;;5064626;28;20059;-75
2023/01/11 11:55:09;;;;;;;4.05;3.22;;;;;;;;;;5053573;28;20085;-75
2023/01/11 11:57:38;;;;;;;4.72;3.47;;;;;;;;;;5063874;28;20036;-75
2023/01/11 12:00:20;;;;;;;4.53;3.97;;;;;;;;;;5058291;28;20016;-75
2023/01/11 12:02:49;;;;;;;3.97;3.20;;;;;;;;;;5062294;28;20056;-75
2023/01/11 12:05:15;;;;;;;4.68;3.20;;;;;;;;;;5066163;28;20031;-75
2023/01/11 12:07:46;;;;;;;4.30;3.20;;;;;;;;;;5077652;28;20031;-75
2023/01/11 12:10:15;;;;;;;3.78;3.38;;;;;;;;;;5052922;28;20025;-75
2023/01/11 12:12:49;;;;;;;4.10;3.65;;;;;;;;;;5064868;28;20020;-75
2023/01/11 12:15:15;;;;;;;;;;;;;;;;;;5076214;28;20082;-75
2023/01/11 12:17:41;;;;;;;8.02;4.97;;;;;;;;;;5064545;28;19920;-75
2023/01/11 12:20:22;;;;;;;9.52;8.52;;;;;;;;;;5054753;28;20036;-75
2023/01/11 12:22:49;;;;;;;8.07;6.63;;;;;;;;;;5049632;28;20558;-75
2023/01/11 12:25:23;;;;;;;4.50;4.10;;;;;;;;;;5071301;28;20039;-75
2023/01/11 12:27:54;;;;;;;4.82;4.38;;;;;;;;;;5079385;28;20020;-75
2023/01/11 12:30:32;;;;;;;7.20;5.72;;;;;;;;;;5072577;28;20128;-76
2023/01/11 12:33:07;;;;;;;6.03;5.50;;;;;;;;;;5064980;28;20136;-75
2023/01/11 12:35:37;;;;;;;4.53;4.05;;;;;;;;;;5062624;28;20178;-75
2023/01/11 12:38:23;;;;;;;4.25;3.83;;;;;;;;;;5067037;28;20029;-75
2023/01/11 12:41:01;;;;;;;3.78;3.38;;;;;;;;;;5065364;28;20537;-75
2023/01/11 12:43:41;;;;;;;5.15;4.22;;;;;;;;;;5063322;28;20032;-75
2023/01/11 12:46:12;;;;;;;4.40;3.40;;;;;;;;;;5063857;28;20070;-75
2023/01/11 12:48:44;;;;;;;3.40;2.60;;;;;;;;;;5056580;28;20040;-75
2023/01/11 12:51:34;;;;;;;4.18;3.10;;;;;;;;;;5053333;28;20082;-75
2023/01/11 12:54:09;;;;;;;3.80;3.38;;;;;;;;;;5078728;28;20024;-75
2023/01/11 12:56:46;;;;;;;4.97;3.70;;;;;;;;;;5071551;28;20025;-75
2023/01/11 12:59:28;;;;;;;4.45;3.97;;;;;;;;;;5052573;28;20494;-75
2023/01/11 13:01:57;;;;;;;8.07;7.28;;;;;;;;;;5064201;28;20547;-75
2023/01/11 13:04:26;;;;;;;6.63;4.30;;;;;;;;;;5056419;28;20028;-75
2023/01/11 13:07:11;;;;;;;3.20;2.90;;;;;;;;;;5086904;28;20534;-75
2023/01/11 13:09:48;;;;;;;3.33;2.95;;;;;;;;;;5071812;28;20027;-75
2023/01/11 13:12:14;;;;;;;2.60;2.40;;;;;;;;;;5062149;28;20031;-75
2023/01/11 13:14:48;;;;;;;3.22;2.70;;;;;;;;;;5057306;28;20128;-75
2023/01/11 13:17:23;;;;;;;2.80;2.60;;;;;;;;;;5063066;28;20032;-75
2023/01/11 13:20:08;;;;;;;6.90;3.90;;;;;;;;;;5062474;28;20033;-75
2023/01/11 13:22:40;;;;;;;3.40;2.67;;;;;;;;;;5064247;28;20024;-75
2023/01/11 13:25:18;;;;;;;3.55;2.90;;;;;;;;;;5074528;28;20027;-75
2023/01/11 13:27:45;;;;;;;2.83;2.60;;;;;;;;;;5070070;28;20105;-75
2023/01/11 13:30:12;;;;;;;5.47;2.80;;;;;;;;;;5066538;28;20100;-75
2023/01/11 13:32:40;;;;;;;4.50;3.90;;;;;;;;;;5064041;28;20407;-75
2023/01/11 13:35:13;;;;;;;10.38;8.10;;;;;;;;;;5053418;28;20064;-75
2023/01/11 13:37:58;;;;;;;8.52;7.30;;;;;;;;;;5060705;28;20028;-75
2023/01/11 13:40:30;;;;;;;8.32;6.30;;;;;;;;;;5066973;28;20024;-75
2023/01/11 13:42:59;;;;;;;10.98;6.95;;;;;;;;;;5068184;28;20147;-75
2023/01/11 13:45:39;;;;;;;11.65;8.40;;;;;;;;;;5067416;28;20036;-75
2023/01/11 13:48:10;;;;;;;15.00;10.02;;;;;;;;;;5067441;28;20048;-75
2023/01/11 13:50:41;;;;;;;11.05;7.50;;;;;;;;;;5048981;28;20029;-75
2023/01/11 13:53:10;;;;;;;20.02;11.60;;;;;;;;;;5058064;28;20776;-75
2023/01/11 13:55:39;;;;;;;20.20;13.52;;;;;;;;;;5062298;28;20484;-75
2023/01/11 13:58:09;;;;;;;51.58;32.13;;;;;;;;;;5069449;28;20036;-75